Time;durP1;ratioP1;P1;durP2;ratioP2;P2;SDS_P1;SDS_P2;PMS_P1;PMS_P2;Temp;Humidity;BMP_temperature;BMP_pressure;BME280_temperature;BME280_humidity;BME280_pressure;Samples;Min_cycle;Max_cycle;Signal;HPM_P1;HPM_P2
2023/06/29 00:00:25;;;;;;;8.10;4.00;;;;;;;25.66;60.99;100504.19;10204800;28;97062;-74
2023/06/29 00:05:48;;;;;;;8.73;4.10;;;;;;;25.61;61.25;100495.72;10209543;28;96766;-74
2023/06/29 00:10:51;;;;;;;9.07;4.40;;;;;;;25.66;60.83;100496.97;10216562;28;96837;-74
2023/06/29 00:15:54;;;;;;;7.15;4.35;;;;;;;25.60;60.97;100478.72;10210800;28;97290;-75
2023/06/29 00:21:01;;;;;;;7.13;4.03;;;;;;;25.64;61.23;100488.19;10206961;28;99167;-76
2023/06/29 00:26:05;;;;;;;7.10;3.95;;;;;;;25.67;60.85;100496.00;10206880;28;97424;-76
2023/06/29 00:31:08;;;;;;;6.32;3.83;;;;;;;25.44;61.55;100488.44;10206794;28;96894;-76
2023/06/29 00:36:13;;;;;;;6.33;3.60;;;;;;;25.35;61.63;100489.31;10205758;28;97035;-76
2023/06/29 00:41:16;;;;;;;7.72;3.75;;;;;;;25.25;62.05;100488.53;10200379;28;96812;-76
2023/06/29 00:46:21;;;;;;;8.03;3.73;;;;;;;25.23;62.24;100493.19;10215067;28;97305;-76
2023/06/29 00:51:25;;;;;;;5.22;3.88;;;;;;;24.90;62.89;100489.19;10210465;28;96805;-76
2023/06/29 00:56:31;;;;;;;7.10;3.63;;;;;;;24.96;62.86;100495.81;10212407;28;96887;-76
2023/06/29 01:01:34;;;;;;;6.22;3.85;;;;;;;24.87;63.15;100489.47;10212364;28;96904;-76
2023/06/29 01:06:44;;;;;;;6.23;3.83;;;;;;;24.94;63.02;100495.97;10210392;28;97793;-75
2023/06/29 01:11:49;;;;;;;7.43;4.25;;;;;;;24.80;63.00;100494.59;10212472;28;96887;-74
2023/06/29 01:16:53;;;;;;;8.23;4.50;;;;;;;24.90;62.79;100496.41;10212428;28;97370;-74
2023/06/29 01:22:03;;;;;;;7.10;3.72;;;;;;;24.92;62.64;100492.56;10214016;28;97001;-74
2023/06/29 01:27:12;;;;;;;7.10;4.20;;;;;;;24.90;62.81;100489.19;10211862;28;96926;-74
2023/06/29 01:32:15;;;;;;;7.88;4.40;;;;;;;24.88;62.52;100488.47;10209304;28;96862;-75
2023/06/29 01:37:22;;;;;;;6.70;3.93;;;;;;;24.73;62.95;100490.78;10212985;28;97798;-74
2023/06/29 01:42:27;;;;;;;8.30;4.28;;;;;;;24.81;62.54;100485.50;10210108;28;96911;-75
2023/06/29 01:47:32;;;;;;;8.45;4.05;;;;;;;24.51;63.23;100485.72;10211372;28;97355;-74
2023/06/29 01:52:36;;;;;;;9.10;4.00;;;;;;;24.64;62.89;100483.56;10213437;28;96759;-74
2023/06/29 01:57:40;;;;;;;7.80;4.43;;;;;;;24.55;62.86;100487.13;10209219;28;97011;-74
2023/06/29 02:02:44;;;;;;;7.30;4.47;;;;;;;24.58;62.86;100486.00;10207096;28;97282;-74
2023/06/29 02:07:47;;;;;;;7.40;4.18;;;;;;;24.39;63.35;100486.84;10212815;28;96686;-75
2023/06/29 02:12:52;;;;;;;7.00;3.80;;;;;;;24.20;63.91;100496.75;10211051;28;97011;-75
2023/06/29 02:17:55;;;;;;;9.13;5.00;;;;;;;24.13;64.01;100485.72;10193036;28;96834;-74
2023/06/29 02:22:58;;;;;;;7.43;3.80;;;;;;;24.06;64.22;100487.25;10210369;28;96881;-75
2023/06/29 02:28:03;;;;;;;6.33;3.97;;;;;;;23.96;64.42;100480.19;10208207;28;96933;-75
2023/06/29 02:33:06;;;;;;;8.48;4.20;;;;;;;23.82;64.58;100480.56;10209446;28;96893;-74
2023/06/29 02:38:09;;;;;;;6.23;4.17;;;;;;;;;;10210170;28;97974;-74
2023/06/29 02:43:15;;;;;;;12.35;4.60;;;;;;;23.59;65.20;100488.03;10210940;28;96569;-74
2023/06/29 02:48:18;;;;;;;7.97;4.38;;;;;;;23.89;64.10;100490.66;10209463;28;96966;-74
2023/06/29 02:53:22;;;;;;;5.50;3.50;;;;;;;23.73;64.65;100493.00;10209824;28;96812;-74
2023/06/29 02:58:27;;;;;;;10.73;3.83;;;;;;;23.81;64.48;100489.59;10209455;28;97636;-75
2023/06/29 03:03:30;;;;;;;7.07;4.32;;;;;;;23.66;64.66;100486.47;10210370;28;97222;-74
2023/06/29 03:08:33;;;;;;;6.40;3.70;;;;;;;23.51;64.90;100480.59;10209853;28;96827;-74
2023/06/29 03:13:38;;;;;;;8.23;4.10;;;;;;;23.46;65.02;100480.16;10208948;28;97756;-74
2023/06/29 03:18:42;;;;;;;8.07;4.38;;;;;;;23.31;65.21;100478.84;10204963;28;97254;-74
2023/06/29 03:23:45;;;;;;;6.70;3.90;;;;;;;23.49;64.82;100487.13;10209939;28;96975;-74
2023/06/29 03:28:50;;;;;;;8.43;4.13;;;;;;;23.31;64.97;100486.06;10206755;28;96832;-75
2023/06/29 03:33:54;;;;;;;7.65;4.25;;;;;;;23.24;65.44;100493.81;10208893;28;97367;-74
2023/06/29 03:38:58;;;;;;;8.18;4.38;;;;;;;23.16;65.67;100501.69;10209731;28;96845;-74
2023/06/29 03:44:03;;;;;;;7.00;3.93;;;;;;;23.16;65.53;100495.47;10206908;28;97001;-75
2023/06/29 03:49:06;;;;;;;7.07;4.50;;;;;;;22.95;66.21;100491.97;10207962;28;96599;-74
2023/06/29 03:54:10;;;;;;;7.30;4.10;;;;;;;22.95;66.07;100490.16;10209218;28;99510;-74
2023/06/29 03:59:14;;;;;;;8.00;4.10;;;;;;;22.90;66.17;100489.69;10207076;28;97576;-74
2023/06/29 04:04:17;;;;;;;7.57;3.97;;;;;;;22.68;66.55;100494.31;10204709;28;97239;-75
2023/06/29 04:09:21;;;;;;;8.95;4.15;;;;;;;22.63;67.01;100499.22;10205767;28;97714;-74
2023/06/29 04:14:26;;;;;;;7.57;4.60;;;;;;;22.53;67.25;100510.75;10207736;28;96813;-74
2023/06/29 04:19:30;;;;;;;9.93;4.85;;;;;;;22.59;67.21;100520.94;10206715;28;96891;-74
2023/06/29 04:24:33;;;;;;;9.00;5.07;;;;;;;22.51;67.49;100517.19;10207608;28;97122;-75
2023/06/29 04:29:38;;;;;;;10.23;5.32;;;;;;;22.42;67.66;100518.84;10207924;28;96738;-74
2023/06/29 04:34:41;;;;;;;9.73;5.07;;;;;;;22.40;67.97;100517.28;10207079;28;97209;-75
2023/06/29 04:39:45;;;;;;;12.15;5.32;;;;;;;22.38;67.86;100529.97;10213400;28;96788;-75
2023/06/29 04:44:49;;;;;;;6.97;4.87;;;;;;;22.22;68.05;100532.22;10205444;28;96895;-74
2023/06/29 04:49:56;;;;;;;9.00;5.35;;;;;;;22.19;68.31;100532.47;10208636;28;97321;-74
2023/06/29 04:55:00;;;;;;;8.10;5.75;;;;;;;22.25;67.95;100535.47;10208701;28;96908;-74
2023/06/29 05:00:10;;;;;;;10.88;6.10;;;;;;;22.33;67.70;100543.72;10200295;28;97311;-74
2023/06/29 05:05:14;;;;;;;9.38;5.82;;;;;;;22.36;67.54;100551.53;10205790;28;97760;-74
2023/06/29 05:10:17;;;;;;;10.63;6.60;;;;;;;22.18;68.17;100547.69;10213153;28;97504;-74
2023/06/29 05:15:22;;;;;;;10.82;6.88;;;;;;;22.18;68.29;100552.19;10206944;28;97720;-74
2023/06/29 05:20:25;;;;;;;10.02;6.07;;;;;;;22.29;68.06;100553.03;10214187;28;97275;-74
2023/06/29 05:25:29;;;;;;;10.70;6.38;;;;;;;22.32;67.86;100568.84;10206406;28;96950;-74
2023/06/29 05:30:34;;;;;;;10.90;5.83;;;;;;;22.48;67.53;100569.28;10213188;28;96813;-74
2023/06/29 05:35:38;;;;;;;8.27;5.55;;;;;;;22.50;67.32;100586.13;10189932;28;98345;-74
2023/06/29 05:40:42;;;;;;;7.57;4.78;;;;;;;22.41;67.57;100589.56;10211815;28;97152;-74
2023/06/29 05:45:47;;;;;;;7.35;4.97;;;;;;;22.49;67.37;100596.94;10212313;28;96684;-74
2023/06/29 05:50:50;;;;;;;10.48;5.15;;;;;;;22.35;67.74;100597.25;10172474;28;97469;-74
2023/06/29 05:55:54;;;;;;;7.17;5.33;;;;;;;22.46;67.66;100598.06;10192954;28;97013;-74
2023/06/29 06:00:59;;;;;;;7.87;4.60;;;;;;;22.45;67.68;100592.84;10207526;28;98505;-74
2023/06/29 06:06:02;;;;;;;7.38;4.70;;;;;;;22.27;67.73;100603.25;10201116;28;97076;-74
2023/06/29 06:11:05;;;;;;;6.23;4.30;;;;;;;22.25;68.01;100607.00;10212500;28;96630;-75
2023/06/29 06:16:10;;;;;;;9.17;4.50;;;;;;;22.13;68.53;100610.69;10212178;28;96798;-75
2023/06/29 06:21:14;;;;;;;6.93;4.28;;;;;;;22.33;67.67;100608.09;10211330;28;97396;-75
2023/06/29 06:26:17;;;;;;;8.65;4.60;;;;;;;22.28;68.11;100607.63;10211906;28;96802;-75
2023/06/29 06:31:22;;;;;;;9.37;3.97;;;;;;;22.09;68.91;100614.63;10211715;28;97109;-75
2023/06/29 06:36:36;;;;;;;8.65;4.40;;;;;;;22.22;68.18;100624.22;10207523;28;97284;-74
2023/06/29 06:41:39;;;;;;;7.20;4.03;;;;;;;22.34;67.82;100622.34;10210868;28;96809;-75
2023/06/29 06:46:44;;;;;;;5.72;3.92;;;;;;;22.41;67.68;100628.91;10209430;28;96945;-75
2023/06/29 06:51:47;;;;;;;6.22;3.75;;;;;;;22.63;67.12;100616.28;10210288;28;96947;-75
2023/06/29 06:56:51;;;;;;;6.37;4.07;;;;;;;22.61;67.18;100610.19;10210874;28;96952;-75
2023/06/29 07:01:56;;;;;;;7.50;4.30;;;;;;;22.80;66.85;100612.19;10204025;28;97582;-74
2023/06/29 07:06:59;;;;;;;7.85;4.35;;;;;;;22.98;66.25;100618.72;10208522;28;97185;-75
2023/06/29 07:12:03;;;;;;;6.93;4.27;;;;;;;22.83;66.74;100621.84;10209383;28;97082;-75
2023/06/29 07:17:08;;;;;;;7.38;4.72;;;;;;;22.93;66.64;100637.03;10208541;28;96652;-74
2023/06/29 07:22:11;;;;;;;8.23;4.28;;;;;;;22.88;66.89;100636.59;10210163;28;96853;-75
2023/06/29 07:27:17;;;;;;;6.95;4.50;;;;;;;23.18;66.19;100633.13;10208089;28;97942;-75
2023/06/29 07:32:40;;;;;;;6.47;4.38;;;;;;;23.08;66.58;100648.28;10199659;28;96757;-75
2023/06/29 07:37:44;;;;;;;8.35;4.35;;;;;;;23.18;66.45;100651.94;10207125;28;96906;-75
2023/06/29 07:42:47;;;;;;;7.90;4.82;;;;;;;23.12;66.54;100655.13;10202798;28;99005;-75
2023/06/29 07:47:52;;;;;;;6.88;4.13;;;;;;;23.11;66.26;100659.63;10202531;28;97711;-75
2023/06/29 07:52:55;;;;;;;8.02;4.80;;;;;;;23.19;66.22;100664.34;10200275;28;97563;-75
2023/06/29 07:57:59;;;;;;;8.20;4.73;;;;;;;23.32;66.10;100673.91;10194565;28;99280;-73
2023/06/29 08:03:06;;;;;;;7.15;4.90;;;;;;;23.36;65.85;100679.88;10203338;28;98965;-72
2023/06/29 08:08:10;;;;;;;5.72;4.47;;;;;;;23.52;65.44;100681.13;10208958;28;96803;-72
2023/06/29 08:13:14;;;;;;;7.47;4.35;;;;;;;23.58;65.28;100690.50;10211894;28;97090;-72
2023/06/29 08:18:18;;;;;;;8.93;5.23;;;;;;;23.63;64.96;100697.19;10213797;28;97994;-72
2023/06/29 08:23:22;;;;;;;8.68;5.50;;;;;;;23.50;65.26;100703.72;10215445;23;98887;-73
2023/06/29 08:28:25;;;;;;;8.53;5.67;;;;;;;23.60;64.87;100705.53;10215697;28;97469;-73
2023/06/29 08:33:30;;;;;;;8.80;5.37;;;;;;;23.56;65.08;100716.69;10230429;28;97039;-73
2023/06/29 08:38:34;;;;;;;8.43;5.68;;;;;;;23.60;64.93;100710.03;10209231;28;99308;-73
2023/06/29 08:43:37;;;;;;;6.03;4.80;;;;;;;23.69;64.76;100725.38;10215274;28;96905;-74
2023/06/29 08:49:02;;;;;;;8.32;5.22;;;;;;;23.66;64.56;100722.97;10210367;28;98778;-74
2023/06/29 08:54:05;;;;;;;8.10;5.30;;;;;;;23.74;64.28;100717.75;10204996;28;97095;-73
2023/06/29 08:59:09;;;;;;;11.40;5.53;;;;;;;23.75;64.19;100726.69;10213343;28;96678;-73
2023/06/29 09:04:14;;;;;;;6.93;4.70;;;;;;;23.94;63.90;100727.66;10210309;28;97734;-74
2023/06/29 09:09:18;;;;;;;7.68;5.68;;;;;;;24.16;63.41;100724.78;10222541;28;98308;-73
2023/06/29 09:14:22;;;;;;;9.10;4.95;;;;;;;24.53;62.74;100725.91;10205336;28;97103;-73
2023/06/29 09:19:26;;;;;;;7.95;4.90;;;;;;;24.83;62.05;100733.03;10208657;28;98212;-73
2023/06/29 09:24:30;;;;;;;6.28;4.32;;;;;;;25.20;61.36;100720.66;10206644;28;99724;-72
2023/06/29 09:29:37;;;;;;;8.45;5.05;;;;;;;26.01;59.03;100719.22;10209761;28;97193;-72
2023/06/29 09:34:48;;;;;;;9.85;5.30;;;;;;;25.92;59.53;100726.34;10204540;28;96933;-72
2023/06/29 09:39:58;;;;;;;7.28;5.03;;;;;;;26.01;59.11;100722.78;10208709;28;98931;-72
2023/06/29 09:45:02;;;;;;;10.95;6.18;;;;;;;25.96;59.23;100721.50;10213510;28;97011;-72
2023/06/29 09:50:17;;;;;;;8.18;5.07;;;;;;;25.97;58.13;100720.53;10211158;28;99124;-72
2023/06/29 09:55:29;;;;;;;8.07;5.13;;;;;;;25.69;58.55;100727.72;10213298;28;96795;-72
2023/06/29 10:00:33;;;;;;;6.97;4.38;;;;;;;25.74;58.62;100722.72;10209260;28;96902;-72
2023/06/29 10:05:40;;;;;;;7.45;4.28;;;;;;;25.73;58.33;100719.19;10209984;28;97093;-72
2023/06/29 10:10:46;;;;;;;5.90;4.15;;;;;;;26.47;57.05;100717.34;10207900;28;96768;-74
2023/06/29 10:15:53;;;;;;;7.10;3.90;;;;;;;26.52;56.67;100717.75;10196863;28;100829;-72
2023/06/29 10:20:58;;;;;;;7.22;4.10;;;;;;;26.55;56.43;100717.44;10194089;28;97258;-72
2023/06/29 10:26:03;;;;;;;6.60;4.47;;;;;;;26.68;56.30;100719.78;10196186;28;97183;-72
2023/06/29 10:31:06;;;;;;;8.50;4.63;;;;;;;27.33;54.26;100716.75;10211675;28;96947;-72
2023/06/29 10:36:13;;;;;;;7.68;4.50;;;;;;;27.35;53.53;100711.19;10209749;28;96909;-73
2023/06/29 10:41:27;;;;;;;7.28;4.45;;;;;;;27.26;53.42;100698.59;10208129;28;96842;-74
2023/06/29 10:46:54;;;;;;;5.35;4.45;;;;;;;27.78;52.23;100693.09;10206792;28;97979;-74
2023/06/29 10:52:04;;;;;;;6.22;4.07;;;;;;;27.86;52.18;100685.03;10207090;28;97215;-73
2023/06/29 10:57:08;;;;;;;6.65;4.05;;;;;;;28.27;51.43;100677.09;10210557;28;96951;-73
2023/06/29 11:02:12;;;;;;;5.03;3.75;;;;;;;28.65;50.47;100672.03;10210150;28;96810;-73
2023/06/29 11:07:17;;;;;;;5.55;4.28;;;;;;;28.65;50.36;100687.41;10201659;28;100593;-74
2023/06/29 11:12:20;;;;;;;6.60;4.15;;;;;;;28.75;50.14;100680.84;10201275;28;98627;-74
2023/06/29 11:17:24;;;;;;;8.10;4.43;;;;;;;29.12;49.47;100686.66;10210232;28;96787;-75
2023/06/29 11:22:29;;;;;;;;;;;;;;;28.68;50.04;100687.94;10214230;28;97589;-74
2023/06/29 11:27:33;;;;;;;6.78;3.83;;;;;;;28.95;48.34;100670.56;10209712;28;98404;-74
2023/06/29 11:32:36;;;;;;;7.10;4.68;;;;;;;29.13;47.40;100672.09;10209397;28;96730;-74
2023/06/29 11:37:41;;;;;;;7.03;4.00;;;;;;;29.49;47.17;100661.75;10207383;28;96767;-73
2023/06/29 11:42:45;;;;;;;5.35;3.72;;;;;;;29.71;45.62;100654.78;10210055;28;96711;-73
2023/06/29 11:47:54;;;;;;;5.50;3.80;;;;;;;29.52;45.52;100649.75;10209332;28;96630;-74
2023/06/29 11:52:59;;;;;;;5.38;3.95;;;;;;;29.84;45.41;100647.78;10208493;28;96858;-74
2023/06/29 11:58:04;;;;;;;5.05;3.38;;;;;;;30.04;45.21;100642.78;10204376;28;100345;-75
2023/06/29 12:03:09;;;;;;;5.03;3.20;;;;;;;30.08;45.15;100636.84;10204354;28;99243;-74
2023/06/29 12:08:16;;;;;;;4.78;2.97;;;;;;;30.16;44.87;100633.28;10209005;28;96766;-74
2023/06/29 12:13:23;;;;;;;4.25;2.90;;;;;;;30.28;44.42;100626.44;10206233;28;97107;-74
2023/06/29 12:18:28;;;;;;;4.00;2.88;;;;;;;30.74;43.98;100613.75;10209096;28;97582;-73
2023/06/29 12:23:36;;;;;;;3.83;2.70;;;;;;;30.11;44.74;100619.38;10208775;28;97140;-74
2023/06/29 12:28:40;;;;;;;3.85;2.63;;;;;;;30.62;44.64;100612.47;10210151;28;96973;-73
2023/06/29 12:33:43;;;;;;;;;;;;;;;30.28;43.54;100610.16;10207757;28;96804;-74
2023/06/29 12:38:49;;;;;;;4.55;2.75;;;;;;;29.77;43.68;100607.94;10209629;28;97608;-74
2023/06/29 12:43:53;;;;;;;3.72;2.60;;;;;;;30.80;43.37;100611.16;10207778;28;97218;-74
2023/06/29 12:48:57;;;;;;;4.40;2.70;;;;;;;30.65;42.86;100603.94;10205035;28;97443;-73
2023/06/29 12:54:01;;;;;;;3.90;2.83;;;;;;;31.17;41.50;100605.75;10211303;28;96764;-74
2023/06/29 12:59:05;;;;;;;4.32;2.40;;;;;;;31.36;41.00;100593.53;10225741;28;96748;-74
2023/06/29 13:04:08;;;;;;;3.42;2.25;;;;;;;31.18;41.98;100588.41;10197426;28;97938;-74
2023/06/29 13:09:13;;;;;;;3.45;2.40;;;;;;;30.79;42.56;100595.03;10191520;28;97251;-74
2023/06/29 13:14:17;;;;;;;4.40;2.85;;;;;;;30.37;43.80;100595.47;10187345;28;97676;-74
2023/06/29 13:19:21;;;;;;;3.90;2.67;;;;;;;30.02;44.18;100580.53;10182971;28;99178;-73
2023/06/29 13:24:25;;;;;;;;;;;;;;;29.96;43.69;100581.25;10183763;28;97701;-74
2023/06/29 13:29:29;;;;;;;3.90;2.58;;;;;;;30.78;42.50;100574.34;10191924;28;102012;-74
2023/06/29 13:34:32;;;;;;;4.70;2.60;;;;;;;30.45;43.00;100579.16;10189180;28;97379;-74
2023/06/29 13:39:38;;;;;;;3.83;2.72;;;;;;;30.50;42.09;100578.59;10185159;28;98564;-74
2023/06/29 13:44:42;;;;;;;3.90;2.53;;;;;;;30.84;42.34;100581.75;10204278;28;98813;-74
2023/06/29 13:49:46;;;;;;;4.40;2.45;;;;;;;30.68;42.71;100579.19;10213444;28;96944;-74
2023/06/29 13:54:51;;;;;;;3.08;1.95;;;;;;;30.48;42.31;100580.63;10212259;28;96724;-74
2023/06/29 13:59:55;;;;;;;4.40;2.67;;;;;;;30.82;42.11;100589.25;10209588;28;96908;-72
2023/06/29 14:04:59;;;;;;;3.30;2.20;;;;;;;30.99;41.53;100582.66;10203880;28;97553;-72
2023/06/29 14:10:04;;;;;;;3.42;2.35;;;;;;;31.23;40.87;100576.97;10212945;28;97025;-72
2023/06/29 14:15:09;;;;;;;3.13;2.22;;;;;;;31.02;40.61;100571.41;10208545;28;96919;-72
2023/06/29 14:20:13;;;;;;;3.65;2.08;;;;;;;31.61;39.56;100575.06;10191731;28;97032;-72
2023/06/29 14:25:18;;;;;;;2.70;2.10;;;;;;;31.61;39.68;100580.50;10201712;28;96983;-72
2023/06/29 14:30:21;;;;;;;2.50;1.85;;;;;;;31.50;38.69;100567.38;10211554;28;97406;-73
2023/06/29 14:35:28;;;;;;;3.53;2.30;;;;;;;31.70;39.10;100574.78;10216826;28;98949;-73
2023/06/29 14:40:36;;;;;;;2.90;2.00;;;;;;;31.24;40.12;100559.66;10210684;28;98948;-73
2023/06/29 14:45:40;;;;;;;3.08;2.08;;;;;;;31.13;39.84;100562.81;10218389;28;97697;-73
2023/06/29 14:50:45;;;;;;;2.97;2.10;;;;;;;31.15;39.64;100553.44;10224232;28;97715;-73
2023/06/29 14:56:05;;;;;;;3.08;2.00;;;;;;;31.22;39.62;100542.66;10209572;28;97689;-73
2023/06/29 15:01:08;;;;;;;3.13;2.00;;;;;;;30.98;40.34;100538.31;10211737;28;98843;-73
2023/06/29 15:06:11;;;;;;;3.30;2.20;;;;;;;31.17;39.47;100545.94;10209173;28;96859;-72
2023/06/29 15:11:15;;;;;;;;;;;;;;;31.39;41.12;100549.63;10208977;28;96840;-73
2023/06/29 15:16:19;;;;;;;3.58;2.15;;;;;;;31.53;39.93;100540.63;10182149;28;96855;-73
2023/06/29 15:21:22;;;;;;;3.67;2.40;;;;;;;31.51;38.87;100530.97;10209766;28;96647;-73
2023/06/29 15:26:27;;;;;;;4.35;2.33;;;;;;;31.24;38.85;100524.31;10210146;28;96642;-73
2023/06/29 15:31:30;;;;;;;4.30;2.47;;;;;;;31.14;39.76;100526.41;10211372;28;96904;-73
2023/06/29 15:36:34;;;;;;;3.03;2.08;;;;;;;31.40;38.80;100523.28;10210476;28;96884;-73
2023/06/29 15:41:39;;;;;;;3.13;2.17;;;;;;;31.93;37.84;100525.69;10209178;28;98694;-72
2023/06/29 15:46:54;;;;;;;3.17;2.15;;;;;;;31.52;38.53;100528.06;10207331;28;96798;-72
2023/06/29 15:51:58;;;;;;;2.47;1.80;;;;;;;31.33;37.59;100534.91;10209090;28;97059;-73
2023/06/29 15:57:04;;;;;;;3.38;2.00;;;;;;;31.33;37.49;100528.63;10204759;28;97290;-72
2023/06/29 16:02:08;;;;;;;3.40;1.75;;;;;;;31.22;37.20;100529.03;10210780;28;97012;-72
2023/06/29 16:07:11;;;;;;;3.10;2.08;;;;;;;30.80;37.96;100523.38;10207963;28;96773;-72
2023/06/29 16:12:16;;;;;;;2.72;1.95;;;;;;;30.91;37.30;100517.47;10209288;28;97190;-72
2023/06/29 16:17:19;;;;;;;2.20;1.45;;;;;;;30.71;37.85;100521.75;10211572;28;97398;-72
2023/06/29 16:22:23;;;;;;;2.47;1.55;;;;;;;30.53;37.22;100524.75;10204325;28;96940;-73
2023/06/29 16:27:28;;;;;;;2.00;1.35;;;;;;;30.47;37.05;100516.47;10198249;28;98906;-74
2023/06/29 16:32:31;;;;;;;1.48;0.95;;;;;;;30.23;37.37;100502.03;10204062;28;97017;-73
2023/06/29 16:37:35;;;;;;;2.17;1.05;;;;;;;29.78;37.60;100499.25;10213599;28;99045;-73
2023/06/29 16:42:40;;;;;;;1.35;0.85;;;;;;;29.77;37.51;100510.28;10219190;28;98639;-74
2023/06/29 16:47:44;;;;;;;1.20;0.90;;;;;;;30.03;37.48;100508.09;10217073;28;96700;-75
2023/06/29 16:52:47;;;;;;;1.48;0.80;;;;;;;29.95;38.65;100505.44;10219224;28;96892;-73
2023/06/29 16:57:52;;;;;;;0.50;0.47;;;;;;;29.83;39.51;100504.97;10213397;28;97379;-73
2023/06/29 17:02:55;;;;;;;1.52;0.65;;;;;;;29.69;40.44;100492.19;10204345;28;98768;-74
2023/06/29 17:07:59;;;;;;;4.15;0.82;;;;;;;29.62;40.66;100484.91;10211520;28;96951;-74
2023/06/29 17:13:03;;;;;;;1.02;0.70;;;;;;;29.87;40.37;100486.47;10245215;28;96657;-74
2023/06/29 17:18:07;;;;;;;0.75;0.50;;;;;;;29.93;40.36;100492.06;10212622;28;96789;-74
2023/06/29 17:23:10;;;;;;;1.15;0.52;;;;;;;30.00;40.41;100494.88;10209979;28;97679;-74
2023/06/29 17:28:15;;;;;;;0.57;0.40;;;;;;;30.00;40.12;100492.19;10213688;28;97751;-73
2023/06/29 17:33:19;;;;;;;0.40;0.30;;;;;;;30.00;40.49;100500.31;10206635;28;97444;-73
2023/06/29 17:38:22;;;;;;;;;;;;;;;29.95;40.83;100508.97;10209299;28;97115;-74
2023/06/29 17:43:28;;;;;;;0.50;0.43;;;;;;;29.58;41.58;100505.28;10171406;28;96778;-74
2023/06/29 17:48:32;;;;;;;0.52;0.40;;;;;;;29.60;40.80;100497.81;10177129;28;96926;-74
2023/06/29 17:53:36;;;;;;;1.00;0.50;;;;;;;29.66;41.09;100505.25;10212268;28;96765;-73
2023/06/29 17:58:41;;;;;;;0.50;0.25;;;;;;;29.22;41.11;100495.88;10211711;28;96717;-74
2023/06/29 18:03:44;;;;;;;0.40;0.30;;;;;;;29.20;41.49;100493.34;10210034;28;96920;-73
2023/06/29 18:08:48;;;;;;;0.30;0.30;;;;;;;28.94;41.31;100496.31;10211093;28;96723;-74
2023/06/29 18:13:52;;;;;;;0.50;0.38;;;;;;;28.63;41.83;100502.56;10209776;28;98707;-74
2023/06/29 18:18:56;;;;;;;0.50;0.32;;;;;;;28.54;42.64;100517.09;10210963;28;96827;-73
2023/06/29 18:24:00;;;;;;;0.75;0.43;;;;;;;28.60;42.60;100511.03;10209375;28;97043;-73
2023/06/29 18:29:06;;;;;;;0.43;0.38;;;;;;;28.74;42.25;100516.59;10210797;28;96553;-74
2023/06/29 18:34:09;;;;;;;0.47;0.35;;;;;;;28.01;44.38;100507.53;10208936;28;97849;-74
2023/06/29 18:39:13;;;;;;;0.30;0.30;;;;;;;27.92;44.73;100527.50;10209316;28;97566;-74
2023/06/29 18:44:19;;;;;;;0.70;0.38;;;;;;;27.93;44.23;100531.88;10209674;28;98109;-73
2023/06/29 18:49:22;;;;;;;0.77;0.30;;;;;;;27.56;44.20;100533.22;10203552;28;98683;-74
2023/06/29 18:54:28;;;;;;;0.30;0.20;;;;;;;27.55;44.27;100539.63;10209387;28;96837;-73
2023/06/29 18:59:35;;;;;;;0.93;0.32;;;;;;;27.43;44.26;100551.72;10209095;28;96724;-74
2023/06/29 19:04:39;;;;;;;0.90;0.32;;;;;;;27.45;44.30;100547.88;10209319;28;97169;-74
2023/06/29 19:09:42;;;;;;;0.17;0.17;;;;;;;27.29;44.74;100564.00;10209105;28;96571;-73
2023/06/29 19:14:47;;;;;;;0.38;0.30;;;;;;;27.26;44.73;100569.72;10207816;28;97158;-74
2023/06/29 19:19:50;;;;;;;0.65;0.30;;;;;;;27.01;44.75;100573.22;10195768;28;98541;-73
2023/06/29 19:24:53;;;;;;;2.40;0.60;;;;;;;26.88;44.74;100570.09;10204224;28;98558;-73
2023/06/29 19:29:59;;;;;;;0.82;0.50;;;;;;;26.76;45.59;100577.59;10207275;28;96843;-74
2023/06/29 19:35:02;;;;;;;0.90;0.47;;;;;;;26.80;45.46;100573.56;10202175;28;96904;-74
2023/06/29 19:40:07;;;;;;;0.98;0.30;;;;;;;26.59;45.49;100580.31;10203621;28;96935;-74
2023/06/29 19:45:12;;;;;;;1.58;0.40;;;;;;;26.45;45.86;100584.41;10207090;28;97727;-73
2023/06/29 19:50:16;;;;;;;1.13;0.40;;;;;;;26.35;46.38;100575.47;10207981;28;96676;-73
2023/06/29 19:55:19;;;;;;;;;;;;;;;26.10;47.14;100578.91;10208384;28;96884;-73
2023/06/29 20:00:24;;;;;;;0.90;0.40;;;;;;;26.03;47.24;100576.97;10199116;28;97829;-71
2023/06/29 20:05:27;;;;;;;0.40;0.32;;;;;;;26.07;47.16;100603.50;10202214;28;96967;-71
2023/06/29 20:10:31;;;;;;;0.63;0.40;;;;;;;25.92;47.24;100605.00;10211169;28;98128;-71
2023/06/29 20:15:37;;;;;;;0.50;0.30;;;;;;;25.92;47.76;100606.84;10205999;28;97213;-71
2023/06/29 20:20:41;;;;;;;0.57;0.28;;;;;;;25.79;47.90;100628.75;10205968;28;98569;-73
2023/06/29 20:25:45;;;;;;;0.75;0.45;;;;;;;25.66;47.50;100625.50;10203340;28;99056;-77
2023/06/29 20:30:50;;;;;;;;;;;;;;;25.91;47.12;100632.97;10213920;28;98705;-76
2023/06/29 20:35:53;;;;;;;0.55;0.25;;;;;;;25.67;47.60;100655.03;10208373;28;99172;-74
2023/06/29 20:40:57;;;;;;;1.03;0.30;;;;;;;25.75;47.31;100646.22;10216895;28;97653;-74
2023/06/29 20:46:02;;;;;;;0.60;0.40;;;;;;;25.79;47.13;100655.72;10215478;28;96867;-74
2023/06/29 20:51:06;;;;;;;0.93;0.40;;;;;;;25.81;47.12;100669.91;10184481;28;96720;-74
2023/06/29 20:56:20;;;;;;;0.95;0.50;;;;;;;25.61;47.56;100684.41;10178706;22;100213;-74
2023/06/29 21:01:24;;;;;;;0.87;0.43;;;;;;;25.53;47.74;100689.69;10175426;28;97152;-74
2023/06/29 21:06:29;;;;;;;0.85;0.40;;;;;;;25.71;46.62;100698.75;10173750;28;98811;-74
2023/06/29 21:11:33;;;;;;;0.47;0.40;;;;;;;25.33;47.41;100702.31;10163950;28;98500;-74
2023/06/29 21:16:41;;;;;;;1.95;0.50;;;;;;;25.11;47.41;100705.31;10135699;28;99157;-73
2023/06/29 21:21:45;;;;;;;0.30;0.30;;;;;;;25.08;47.45;100704.75;10161098;28;97676;-74
2023/06/29 21:26:50;;;;;;;1.40;0.60;;;;;;;24.99;47.89;100708.25;10171899;28;96739;-74
2023/06/29 21:32:02;;;;;;;2.25;0.43;;;;;;;24.93;47.32;100715.06;10161196;28;97820;-74
2023/06/29 21:37:07;;;;;;;0.65;0.40;;;;;;;24.85;47.88;100723.00;10155280;28;97163;-74
2023/06/29 21:42:10;;;;;;;0.80;0.40;;;;;;;24.78;47.41;100730.78;10157086;28;97257;-73
2023/06/29 21:47:15;;;;;;;1.10;0.53;;;;;;;24.76;46.59;100729.22;10155514;28;98881;-74
2023/06/29 21:52:19;;;;;;;1.15;0.40;;;;;;;24.57;46.93;100735.41;10158066;28;96931;-75
2023/06/29 21:57:25;;;;;;;0.73;0.45;;;;;;;24.49;46.65;100737.94;10172767;28;97872;-75
2023/06/29 22:02:29;;;;;;;1.63;0.63;;;;;;;24.54;45.82;100733.00;10170167;28;96800;-74
2023/06/29 22:07:33;;;;;;;1.77;0.40;;;;;;;24.42;46.05;100736.78;10135284;28;97004;-74
2023/06/29 22:12:41;;;;;;;0.47;0.23;;;;;;;24.34;46.50;100741.16;10144828;28;96665;-74
2023/06/29 22:17:48;;;;;;;1.73;0.50;;;;;;;24.25;47.25;100745.47;10172733;28;97345;-74
2023/06/29 22:22:52;;;;;;;0.65;0.47;;;;;;;24.22;47.12;100744.91;10165726;28;96816;-74
2023/06/29 22:27:55;;;;;;;0.93;0.30;;;;;;;24.13;47.68;100759.16;10212410;28;96746;-74
2023/06/29 22:33:05;;;;;;;1.97;0.70;;;;;;;23.90;48.42;100753.09;10172665;28;96941;-74
2023/06/29 22:38:11;;;;;;;0.63;0.40;;;;;;;23.64;49.34;100767.91;10162409;28;97892;-75
2023/06/29 22:43:17;;;;;;;1.65;0.40;;;;;;;23.60;49.49;100775.38;10132168;28;96662;-74
2023/06/29 22:48:22;;;;;;;0.53;0.33;;;;;;;23.66;49.16;100782.09;10158071;28;96909;-74
2023/06/29 22:53:25;;;;;;;0.68;0.30;;;;;;;23.57;49.59;100781.03;10170507;28;97273;-74
2023/06/29 22:58:29;;;;;;;0.75;0.38;;;;;;;23.76;49.20;100784.81;10163592;28;97158;-74
2023/06/29 23:03:34;;;;;;;0.80;0.40;;;;;;;23.67;48.88;100789.16;10156423;28;98950;-75
2023/06/29 23:08:37;;;;;;;0.47;0.32;;;;;;;23.66;49.05;100795.50;10164862;28;98551;-73
2023/06/29 23:13:40;;;;;;;1.00;0.40;;;;;;;23.33;50.48;100798.31;10164282;28;97173;-75
2023/06/29 23:18:48;;;;;;;1.27;0.40;;;;;;;23.45;50.01;100798.16;10170690;28;97445;-75
2023/06/29 23:23:53;;;;;;;0.70;0.47;;;;;;;23.37;50.32;100805.16;10170613;28;97400;-75